Amo, Colorado
Current Conditions -  °F | °C
As of 8:53 PM on Friday 24 Oct 2014 (Local Time) from KFLY Reporting Station
Clear Clear  
Wind Chill: 47°   Ceiling: Unl
Heat Index: 49°   Visibility: 10mi
Dew Point: 25°   Wind: 5mph
Humidity: 40%   Direction: 230°SW
Pressure: 30.32"   Gusts: NA
Location:  39.0051°N, 104.503°W
Report Text: KFLY 250253Z AUTO 23004KT 10SM CLR 09/M04 A3032 RMK AO2 T00921039
Loading
Personal Weather Stations






























Interactive Weather Map New forecast layout! Learn more

10-Day Weather Forecast

Advertisements
Track Severe Weather on mobile